createdAt,value
2023-03-08T00:02:09.454Z,0.88
2023-03-08T00:04:38.082Z,1.13
2023-03-08T00:12:11.816Z,0.90
2023-03-08T00:14:44.300Z,1.20
2023-03-08T00:17:27.583Z,1.00
2023-03-08T00:20:01.040Z,0.80
2023-03-08T00:22:30.791Z,1.20
2023-03-08T00:25:02.608Z,0.93
2023-03-08T00:27:44.886Z,1.30
2023-03-08T00:30:20.762Z,0.95
2023-03-08T00:35:18.750Z,0.90
2023-03-08T00:37:53.009Z,0.90
2023-03-08T00:40:19.643Z,1.00
2023-03-08T00:42:59.140Z,0.85
2023-03-08T00:45:32.731Z,1.02
2023-03-08T00:48:03.736Z,0.90
2023-03-08T00:50:51.853Z,0.98
2023-03-08T00:53:19.871Z,0.88
2023-03-08T00:56:00.758Z,0.90
2023-03-08T00:58:28.288Z,0.73
2023-03-08T01:03:40.442Z,0.80
2023-03-08T01:06:18.040Z,0.73
2023-03-08T01:08:56.872Z,0.90
2023-03-08T01:11:33.825Z,0.90
2023-03-08T01:14:17.664Z,0.90
2023-03-08T01:16:50.135Z,0.98
2023-03-08T01:19:21.973Z,1.10
2023-03-08T01:21:51.564Z,0.90
2023-03-08T01:24:18.014Z,0.70
2023-03-08T01:29:19.674Z,0.90
2023-03-08T01:31:55.370Z,0.82
2023-03-08T01:34:29.806Z,0.90
2023-03-08T01:37:08.928Z,1.10
2023-03-08T01:39:49.054Z,0.90
2023-03-08T01:42:16.057Z,1.10
2023-03-08T01:45:06.386Z,0.93
2023-03-08T01:47:42.745Z,0.90
2023-03-08T01:50:11.129Z,0.80
2023-03-08T01:52:46.371Z,0.80
2023-03-08T01:55:20.146Z,0.82
2023-03-08T01:57:59.525Z,0.70
2023-03-08T02:00:32.342Z,0.73
2023-03-08T02:03:07.053Z,0.68
2023-03-08T02:05:33.882Z,0.60
2023-03-08T02:08:07.682Z,0.68
2023-03-08T02:10:52.371Z,0.60
2023-03-08T02:13:25.954Z,0.50
2023-03-08T02:18:36.391Z,0.60
2023-03-08T02:24:26.554Z,0.60
2023-03-08T02:27:08.841Z,0.68
2023-03-08T02:29:42.612Z,0.80
2023-03-08T02:32:12.689Z,0.70
2023-03-08T02:34:52.882Z,0.43
2023-03-08T02:37:32.462Z,0.50
2023-03-08T02:40:28.488Z,0.40
2023-03-08T02:45:39.112Z,0.57
2023-03-08T02:48:11.708Z,0.52
2023-03-08T02:50:45.815Z,0.40
2023-03-08T02:53:15.103Z,0.45
2023-03-08T02:55:58.732Z,0.50
2023-03-08T03:01:10.479Z,0.80
2023-03-08T03:03:37.665Z,0.50
2023-03-08T03:06:07.401Z,0.60
2023-03-08T03:08:39.992Z,0.52
2023-03-08T03:11:17.145Z,0.60
2023-03-08T03:13:57.905Z,0.50
2023-03-08T03:16:36.010Z,0.60
2023-03-08T03:19:11.391Z,0.85
2023-03-08T03:21:51.845Z,0.63
2023-03-08T03:26:51.721Z,0.70
2023-03-08T03:29:18.299Z,0.60
2023-03-08T03:31:47.030Z,0.77
2023-03-08T03:34:13.479Z,0.68
2023-03-08T03:36:40.653Z,0.50
2023-03-08T03:39:07.084Z,0.63
2023-03-08T03:41:33.516Z,0.70
2023-03-08T03:44:00.092Z,0.60
2023-03-08T03:46:26.765Z,0.73
2023-03-08T03:48:53.253Z,0.70
2023-03-08T03:51:20.595Z,0.55
2023-03-08T03:53:49.776Z,0.55
2023-03-08T03:56:21.134Z,0.70
2023-03-08T03:58:48.725Z,0.60
2023-03-08T04:01:16.409Z,0.70
2023-03-08T04:03:43.114Z,0.60
2023-03-08T04:06:12.732Z,0.68
2023-03-08T04:08:39.153Z,0.50
2023-03-08T04:11:06.728Z,0.60
2023-03-08T04:13:40.046Z,0.60
2023-03-08T04:16:17.447Z,0.50
2023-03-08T04:18:52.944Z,0.60
2023-03-08T04:21:19.316Z,0.52
2023-03-08T04:23:49.718Z,0.77
2023-03-08T04:26:20.884Z,0.35
2023-03-08T04:28:51.436Z,0.70
2023-03-08T04:31:19.617Z,0.60
2023-03-08T04:33:46.809Z,0.60
2023-03-08T04:36:13.706Z,0.63
2023-03-08T04:38:40.329Z,0.60
2023-03-08T04:41:06.813Z,0.70
2023-03-08T04:43:36.791Z,0.55
2023-03-08T04:46:03.756Z,0.60
2023-03-08T04:51:03.350Z,0.60
2023-03-08T04:53:30.293Z,0.50
2023-03-08T04:56:00.741Z,0.60
2023-03-08T04:58:28.253Z,0.70
2023-03-08T05:00:54.777Z,0.50
2023-03-08T05:03:26.886Z,0.63
2023-03-08T05:05:54.508Z,0.32
2023-03-08T05:08:24.781Z,0.70
2023-03-08T05:11:00.762Z,0.50
2023-03-08T05:13:35.826Z,0.70
2023-03-08T05:18:28.939Z,0.70
2023-03-08T05:20:56.164Z,0.75
2023-03-08T05:23:28.590Z,0.60
2023-03-08T05:25:56.108Z,0.65
2023-03-08T05:28:23.329Z,0.50
2023-03-08T05:31:01.961Z,0.77
2023-03-08T05:35:59.984Z,0.60
2023-03-08T05:38:26.745Z,0.68
2023-03-08T05:40:53.223Z,0.57
2023-03-08T05:43:19.924Z,0.47
2023-03-08T05:46:02.044Z,0.63
2023-03-08T05:48:36.181Z,0.60
2023-03-08T05:53:42.563Z,1.00
2023-03-08T05:56:10.221Z,0.70
2023-03-08T05:58:37.275Z,0.75
2023-03-08T06:01:14.768Z,0.80
2023-03-08T06:03:46.620Z,0.70
2023-03-08T06:06:14.042Z,0.90
2023-03-08T06:08:42.049Z,0.93
2023-03-08T06:11:08.885Z,1.17
2023-03-08T06:13:56.680Z,0.65
2023-03-08T06:16:24.922Z,0.80
2023-03-08T06:18:51.438Z,0.73
2023-03-08T06:21:30.639Z,0.70
2023-03-08T06:24:04.250Z,0.63
2023-03-08T06:26:40.880Z,0.73
2023-03-08T06:29:07.332Z,0.70
2023-03-08T06:31:36.522Z,0.70
2023-03-08T06:34:07.234Z,0.90
2023-03-08T06:39:09.893Z,0.70
2023-03-08T06:44:08.055Z,0.70
2023-03-08T06:46:34.517Z,1.10
2023-03-08T06:49:07.872Z,0.70
2023-03-08T06:51:37.860Z,0.82
2023-03-08T06:54:16.778Z,0.75
2023-03-08T06:56:47.876Z,0.63
2023-03-08T06:59:14.490Z,0.90
2023-03-08T07:01:41.245Z,0.80
2023-03-08T07:04:07.966Z,0.98
2023-03-08T07:06:37.334Z,0.80
2023-03-08T07:09:04.890Z,0.70
2023-03-08T07:11:31.329Z,1.00
2023-03-08T07:14:05.580Z,0.88
2023-03-08T07:16:35.369Z,1.17
2023-03-08T07:19:02.712Z,0.85
2023-03-08T07:21:29.168Z,0.80
2023-03-08T07:23:55.599Z,0.88
2023-03-08T07:26:22.931Z,1.25
2023-03-08T07:29:01.392Z,1.10
2023-03-08T07:31:29.096Z,0.90
2023-03-08T07:33:56.469Z,0.82
2023-03-08T07:36:23.053Z,1.02
2023-03-08T07:38:50.912Z,1.00
2023-03-08T07:41:17.339Z,1.08
2023-03-08T07:43:47.918Z,1.13
2023-03-08T07:46:14.921Z,1.05
2023-03-08T07:48:41.941Z,1.00
2023-03-08T07:51:14.698Z,0.90
2023-03-08T07:53:41.158Z,1.08
2023-03-08T07:56:07.720Z,0.77
2023-03-08T07:58:40.522Z,0.95
2023-03-08T08:01:13.441Z,0.82
2023-03-08T08:03:40.280Z,0.82
2023-03-08T08:06:11.236Z,0.65
2023-03-08T08:08:39.730Z,1.00
2023-03-08T08:11:19.949Z,1.00
2023-03-08T08:13:46.461Z,0.77
2023-03-08T08:16:15.119Z,0.85
2023-03-08T08:18:42.395Z,1.10
2023-03-08T08:21:10.310Z,1.05
2023-03-08T08:23:37.000Z,0.77
2023-03-08T08:26:07.641Z,0.90
2023-03-08T08:28:34.588Z,0.82
2023-03-08T08:31:06.013Z,0.80
2023-03-08T08:33:33.022Z,1.00
2023-03-08T08:35:59.943Z,1.10
2023-03-08T08:38:26.914Z,1.00
2023-03-08T08:40:53.379Z,0.95
2023-03-08T08:43:19.811Z,0.70
2023-03-08T08:45:49.041Z,0.85
2023-03-08T08:48:19.685Z,0.80
2023-03-08T08:50:47.300Z,0.90
2023-03-08T08:53:25.145Z,1.95
2023-03-08T08:55:53.475Z,2.63
2023-03-08T08:58:20.106Z,3.13
2023-03-08T09:00:46.532Z,3.35
2023-03-08T09:03:12.914Z,3.03
2023-03-08T09:05:44.034Z,4.00
2023-03-08T09:08:15.535Z,3.90
2023-03-08T09:10:42.829Z,4.88
2023-03-08T09:13:21.037Z,4.00
2023-03-08T09:15:53.982Z,2.70
2023-03-08T09:18:29.908Z,2.00
2023-03-08T09:20:56.530Z,2.60
2023-03-08T09:23:23.176Z,2.28
2023-03-08T09:26:03.002Z,2.20
2023-03-08T09:28:29.656Z,2.40
2023-03-08T09:30:56.128Z,2.20
2023-03-08T09:33:22.551Z,2.17
2023-03-08T09:38:28.127Z,2.03
2023-03-08T09:41:22.000Z,2.35
2023-03-08T09:43:54.385Z,2.17
2023-03-08T09:46:24.943Z,2.17
2023-03-08T09:48:54.970Z,2.42
2023-03-08T09:51:23.540Z,2.70
2023-03-08T09:53:59.314Z,2.35
2023-03-08T09:59:00.580Z,3.50
2023-03-08T10:01:38.167Z,2.72
2023-03-08T10:04:23.041Z,3.25
2023-03-08T10:07:05.148Z,3.45
2023-03-08T10:09:33.718Z,3.20
2023-03-08T10:12:03.070Z,3.40
2023-03-08T10:14:49.472Z,3.28
2023-03-08T10:17:26.299Z,3.40
2023-03-08T10:20:04.509Z,3.40
2023-03-08T10:22:32.429Z,2.75
2023-03-08T10:25:02.819Z,2.70
2023-03-08T10:27:34.837Z,3.03
2023-03-08T10:30:04.071Z,2.92
2023-03-08T10:32:30.559Z,2.65
2023-03-08T10:35:03.913Z,2.95
2023-03-08T10:37:31.429Z,3.90
2023-03-08T10:40:11.469Z,3.60
2023-03-08T10:42:41.128Z,3.33
2023-03-08T10:45:21.389Z,2.53
2023-03-08T10:47:58.781Z,3.50
2023-03-08T10:50:28.906Z,3.05
2023-03-08T10:53:25.953Z,3.33
2023-03-08T10:55:52.678Z,2.70
2023-03-08T10:58:31.074Z,3.85
2023-03-08T11:01:09.477Z,3.25
2023-03-08T11:03:48.172Z,3.08
2023-03-08T11:06:16.278Z,3.60
2023-03-08T11:09:07.888Z,3.08
2023-03-08T11:11:44.098Z,2.65
2023-03-08T11:14:11.456Z,3.17
2023-03-08T11:19:40.087Z,2.97
2023-03-08T11:22:15.395Z,2.80
2023-03-08T11:24:43.147Z,2.70
2023-03-08T11:27:09.541Z,2.72
2023-03-08T11:29:46.250Z,3.35
2023-03-08T11:32:31.423Z,3.03
2023-03-08T11:35:16.023Z,3.13
2023-03-08T11:38:02.308Z,2.70
2023-03-08T11:40:56.301Z,2.50
2023-03-08T11:43:48.895Z,2.80
2023-03-08T11:46:31.165Z,3.10
2023-03-08T11:49:23.903Z,3.03
2023-03-08T11:52:14.152Z,3.15
2023-03-08T11:54:43.615Z,3.00
2023-03-08T11:57:12.187Z,2.30
2023-03-08T11:59:41.626Z,2.55
2023-03-08T12:02:08.115Z,2.30
2023-03-08T12:04:38.080Z,2.28
2023-03-08T12:07:08.079Z,2.60
2023-03-08T12:09:56.153Z,2.58
2023-03-08T12:12:37.092Z,3.03
2023-03-08T12:15:12.671Z,2.60
2023-03-08T12:18:00.138Z,2.00
2023-03-08T12:20:41.194Z,2.90
2023-03-08T12:23:19.372Z,2.45
2023-03-08T12:25:48.182Z,2.20
2023-03-08T12:28:42.287Z,2.67
2023-03-08T12:31:26.993Z,2.47
2023-03-08T12:33:55.462Z,2.28
2023-03-08T12:36:22.631Z,2.20
2023-03-08T12:44:26.187Z,2.28
2023-03-08T12:47:02.836Z,2.00
2023-03-08T12:52:18.501Z,1.98
2023-03-08T12:55:03.777Z,2.35
2023-03-08T12:57:47.142Z,2.42
2023-03-08T13:00:25.566Z,2.13
2023-03-08T13:03:28.043Z,1.70
2023-03-08T13:05:54.582Z,1.73
2023-03-08T13:08:23.889Z,1.92
2023-03-08T13:10:50.292Z,1.88
2023-03-08T13:13:37.134Z,1.98
2023-03-08T13:16:19.208Z,2.00
2023-03-08T13:18:47.046Z,1.75
2023-03-08T13:21:13.526Z,2.10
2023-03-08T13:23:53.510Z,2.17
2023-03-08T13:26:37.606Z,2.30
2023-03-08T13:29:12.819Z,2.60
2023-03-08T13:31:39.706Z,2.30
2023-03-08T13:34:19.767Z,2.55
2023-03-08T13:36:48.219Z,2.60
2023-03-08T13:39:26.425Z,2.53
2023-03-08T13:41:54.220Z,2.22
2023-03-08T13:44:27.701Z,2.42
2023-03-08T13:47:13.492Z,2.22
2023-03-08T13:49:42.900Z,2.20
2023-03-08T13:52:18.118Z,2.30
2023-03-08T13:54:50.789Z,2.22
2023-03-08T13:57:43.931Z,2.05
2023-03-08T14:00:23.269Z,2.28
2023-03-08T14:02:49.806Z,2.40
2023-03-08T14:05:20.647Z,2.42
2023-03-08T14:08:02.303Z,2.47
2023-03-08T14:10:40.647Z,2.33
2023-03-08T14:13:13.913Z,1.85
2023-03-08T14:15:48.345Z,2.00
2023-03-08T14:18:38.977Z,2.20
2023-03-08T14:21:16.381Z,2.13
2023-03-08T14:23:46.568Z,2.10
2023-03-08T14:26:32.860Z,2.67
2023-03-08T14:29:24.328Z,2.33
2023-03-08T14:32:09.801Z,2.05
2023-03-08T14:35:04.443Z,2.35
2023-03-08T14:37:31.436Z,2.03
2023-03-08T14:40:16.502Z,1.80
2023-03-08T14:42:48.295Z,2.38
2023-03-08T14:45:21.387Z,1.90
2023-03-08T14:50:28.606Z,2.20
2023-03-08T14:52:57.421Z,2.70
2023-03-08T14:55:23.895Z,2.30
2023-03-08T14:57:52.192Z,2.97
2023-03-08T15:00:22.526Z,2.90
2023-03-08T15:02:48.968Z,2.50
2023-03-08T15:05:28.095Z,2.90
2023-03-08T15:07:56.421Z,3.15
2023-03-08T15:10:25.360Z,3.10
2023-03-08T15:15:23.421Z,3.55
2023-03-08T15:17:50.786Z,3.17
2023-03-08T15:20:26.183Z,2.80
2023-03-08T15:22:59.101Z,3.40
2023-03-08T15:25:29.901Z,3.42
2023-03-08T15:27:56.566Z,3.80
2023-03-08T15:30:27.003Z,3.65
2023-03-08T15:32:54.290Z,3.47
2023-03-08T15:35:20.882Z,2.90
2023-03-08T15:37:50.756Z,2.33
2023-03-08T15:40:21.879Z,3.03
2023-03-08T15:42:48.402Z,2.90
2023-03-08T15:45:23.167Z,2.97
2023-03-08T15:48:00.321Z,3.40
2023-03-08T15:50:31.773Z,2.95
2023-03-08T15:53:02.325Z,3.10
2023-03-08T15:55:29.397Z,3.83
2023-03-08T15:58:08.928Z,3.20
2023-03-08T16:00:37.344Z,3.28
2023-03-08T16:03:04.548Z,3.13
2023-03-08T16:05:34.137Z,3.00
2023-03-08T16:08:10.438Z,3.40
2023-03-08T16:10:36.878Z,3.63
2023-03-08T16:13:05.393Z,3.50
2023-03-08T16:15:41.788Z,2.97
2023-03-08T16:18:08.295Z,4.00
2023-03-08T16:20:36.460Z,4.30
2023-03-08T16:23:03.008Z,3.50
2023-03-08T16:25:32.815Z,3.40
2023-03-08T16:27:59.247Z,3.90
2023-03-08T16:30:26.484Z,3.40
2023-03-08T16:32:53.362Z,3.80
2023-03-08T16:35:33.316Z,3.90
2023-03-08T16:38:04.410Z,4.35
2023-03-08T16:40:38.783Z,5.15
2023-03-08T16:48:43.116Z,2.88
2023-03-08T16:51:16.333Z,2.20
2023-03-08T16:53:46.573Z,1.88
2023-03-08T16:56:23.386Z,1.60
2023-03-08T16:58:50.274Z,1.60
2023-03-08T17:01:20.685Z,1.30
2023-03-08T17:03:47.581Z,1.40
2023-03-08T17:11:41.145Z,1.50
2023-03-08T17:14:11.458Z,1.33
2023-03-08T17:16:50.783Z,1.10
2023-03-08T17:19:23.676Z,0.98
2023-03-08T17:22:06.962Z,1.30
2023-03-08T17:24:33.551Z,1.00
2023-03-08T17:29:35.417Z,1.30
2023-03-08T17:32:11.302Z,1.23
2023-03-08T17:34:37.720Z,1.20
2023-03-08T17:37:04.320Z,1.60
2023-03-08T17:39:30.712Z,1.30
2023-03-08T17:41:57.194Z,1.50
2023-03-08T17:44:26.663Z,1.80
2023-03-08T17:46:53.073Z,1.63
2023-03-08T17:49:19.510Z,1.50
2023-03-08T17:52:08.139Z,1.45
2023-03-08T17:54:34.713Z,1.60
2023-03-08T17:57:06.541Z,1.15
2023-03-08T17:59:36.170Z,1.73
2023-03-08T18:02:02.678Z,1.30
2023-03-08T18:04:39.545Z,1.35
2023-03-08T18:07:06.455Z,1.63
2023-03-08T18:09:33.899Z,1.50
2023-03-08T18:12:00.333Z,1.52
2023-03-08T18:14:39.283Z,1.35
2023-03-08T18:17:06.593Z,1.38
2023-03-08T18:19:33.046Z,1.23
2023-03-08T18:21:59.528Z,1.02
2023-03-08T18:24:26.964Z,1.20
2023-03-08T18:26:54.447Z,1.10
2023-03-08T18:29:20.905Z,1.42
2023-03-08T18:31:47.338Z,1.48
2023-03-08T18:34:13.777Z,1.05
2023-03-08T18:36:40.420Z,1.35
2023-03-08T18:39:08.214Z,1.92
2023-03-08T18:41:35.132Z,1.10
2023-03-08T18:44:01.636Z,1.20
2023-03-08T18:46:29.511Z,1.52
2023-03-08T18:48:56.813Z,1.23
2023-03-08T18:51:23.277Z,1.10
2023-03-08T18:53:49.743Z,1.45
2023-03-08T18:56:16.394Z,1.30
2023-03-08T18:58:57.555Z,1.50
2023-03-08T19:01:30.401Z,1.58
2023-03-08T19:03:58.828Z,1.50
2023-03-08T19:06:34.480Z,1.60
2023-03-08T19:09:01.462Z,1.38
2023-03-08T19:11:28.702Z,1.23
2023-03-08T19:13:55.465Z,1.50
2023-03-08T19:16:31.211Z,1.58
2023-03-08T19:18:59.641Z,1.80
2023-03-08T19:21:42.521Z,1.67
2023-03-08T19:24:19.893Z,1.60
2023-03-08T19:26:55.818Z,1.75
2023-03-08T19:29:30.302Z,1.40
2023-03-08T19:32:00.331Z,1.90
2023-03-08T19:34:28.348Z,2.20
2023-03-08T19:36:55.641Z,2.20
2023-03-08T19:39:25.629Z,2.10
2023-03-08T19:41:59.480Z,2.05
2023-03-08T19:44:27.168Z,2.22
2023-03-08T19:46:59.459Z,2.45
2023-03-08T19:49:28.488Z,2.42
2023-03-08T19:51:59.548Z,3.33
2023-03-08T19:54:27.118Z,3.20
2023-03-08T19:57:00.434Z,3.53
2023-03-08T19:59:27.275Z,5.80
2023-03-08T20:01:56.546Z,6.78
2023-03-08T20:04:23.513Z,6.30
2023-03-08T20:06:50.353Z,4.63
2023-03-08T20:09:30.016Z,4.00
2023-03-08T20:12:03.252Z,4.38
2023-03-08T20:14:31.309Z,4.30
2023-03-08T20:17:04.723Z,4.43
2023-03-08T20:19:36.678Z,4.70
2023-03-08T20:22:03.183Z,3.78
2023-03-08T20:24:29.662Z,3.88
2023-03-08T20:26:56.737Z,4.22
2023-03-08T20:29:23.186Z,4.57
2023-03-08T20:31:49.686Z,4.03
2023-03-08T20:34:17.008Z,3.58
2023-03-08T20:36:45.603Z,3.35
2023-03-08T20:39:14.567Z,2.95
2023-03-08T20:41:41.042Z,3.50
2023-03-08T20:44:10.504Z,3.08
2023-03-08T20:46:44.433Z,3.55
2023-03-08T20:51:45.874Z,2.92
2023-03-08T20:56:45.888Z,4.00
2023-03-08T20:59:13.511Z,2.90
2023-03-08T21:01:47.649Z,4.20
2023-03-08T21:04:14.122Z,3.65
2023-03-08T21:06:53.053Z,4.32
2023-03-08T21:09:22.618Z,3.53
2023-03-08T21:11:49.344Z,3.60
2023-03-08T21:14:15.873Z,3.83
2023-03-08T21:16:47.608Z,3.95
2023-03-08T21:19:15.572Z,4.07
2023-03-08T21:21:45.554Z,3.65
2023-03-08T21:24:15.293Z,4.50
2023-03-08T21:26:42.249Z,3.63
2023-03-08T21:29:10.788Z,3.33
2023-03-08T21:31:39.433Z,3.65
2023-03-08T21:34:06.619Z,3.33
2023-03-08T21:36:34.604Z,3.30
2023-03-08T21:39:02.195Z,3.00
2023-03-08T21:44:05.600Z,2.50
2023-03-08T21:46:32.269Z,2.45
2023-03-08T21:48:58.691Z,5.07
2023-03-08T21:51:31.654Z,5.63
2023-03-08T21:54:08.177Z,5.20
2023-03-08T21:56:35.988Z,4.60
2023-03-08T21:59:04.650Z,6.07
2023-03-08T22:01:41.844Z,4.85
2023-03-08T22:04:09.993Z,6.10
2023-03-08T22:06:36.478Z,5.50
2023-03-08T22:09:10.807Z,5.80
2023-03-08T22:11:43.680Z,5.53
2023-03-08T22:14:14.720Z,5.90
2023-03-08T22:16:41.720Z,6.03
2023-03-08T22:19:10.147Z,4.95
2023-03-08T22:21:39.644Z,4.47
2023-03-08T22:24:06.234Z,5.63
2023-03-08T22:26:39.943Z,4.70
2023-03-08T22:29:07.094Z,5.30
2023-03-08T22:31:33.604Z,5.15
2023-03-08T22:34:02.344Z,4.30
2023-03-08T22:36:30.614Z,4.63
2023-03-08T22:38:57.040Z,4.05
2023-03-08T22:41:24.554Z,3.92
2023-03-08T22:43:51.676Z,4.50
2023-03-08T22:46:19.995Z,4.75
2023-03-08T22:48:52.559Z,4.10
2023-03-08T22:51:28.493Z,3.88
2023-03-08T22:54:03.383Z,4.38
2023-03-08T22:56:31.520Z,3.50
2023-03-08T22:59:09.263Z,3.53
2023-03-08T23:01:35.853Z,4.78
2023-03-08T23:04:07.833Z,4.20
2023-03-08T23:06:37.682Z,4.30
2023-03-08T23:09:13.369Z,3.50
2023-03-08T23:14:12.174Z,3.80
2023-03-08T23:16:41.057Z,3.60
2023-03-08T23:19:07.883Z,3.60
2023-03-08T23:21:42.830Z,3.45
2023-03-08T23:24:10.392Z,3.83
2023-03-08T23:26:36.984Z,3.58
2023-03-08T23:29:04.703Z,3.70
2023-03-08T23:31:32.814Z,4.28
2023-03-08T23:34:05.862Z,5.03
2023-03-08T23:36:46.255Z,4.20
2023-03-08T23:39:12.670Z,3.35
2023-03-08T23:41:39.306Z,3.70
2023-03-08T23:44:05.711Z,3.72
2023-03-08T23:46:36.664Z,3.83
2023-03-08T23:49:03.650Z,3.42
2023-03-08T23:51:31.588Z,3.17
2023-03-08T23:53:59.420Z,2.72
2023-03-08T23:56:30.163Z,2.63
2023-03-08T23:59:00.797Z,2.72
